sensor_id;sensor_type;location;lat;lon;timestamp;pressure;altitude;pressure_sealevel;temperature;humidity
31062;BME280;17724;53.546;9.974;2023-02-28T00:00:30;103197.03;;;5.39;61.87
31062;BME280;17724;53.546;9.974;2023-02-28T00:04:31;103192.72;;;4.94;61.18
31062;BME280;17724;53.546;9.974;2023-02-28T00:08:31;103187.56;;;5.17;63.56
31062;BME280;17724;53.546;9.974;2023-02-28T00:12:32;103178.53;;;5.17;62.76
31062;BME280;17724;53.546;9.974;2023-02-28T00:16:33;103197.34;;;5.28;62.61
31062;BME280;17724;53.546;9.974;2023-02-28T00:20:33;103191.69;;;5.22;63.29
31062;BME280;17724;53.546;9.974;2023-02-28T00:24:34;103187.56;;;5.17;63.40
31062;BME280;17724;53.546;9.974;2023-02-28T00:28:34;103188.31;;;5.28;62.73
31062;BME280;17724;53.546;9.974;2023-02-28T00:32:35;103190.34;;;5.34;62.75
31062;BME280;17724;53.546;9.974;2023-02-28T00:36:35;103184.34;;;5.22;63.35
31062;BME280;17724;53.546;9.974;2023-02-28T00:40:38;103181.75;;;5.12;63.92
31062;BME280;17724;53.546;9.974;2023-02-28T00:44:38;103178.56;;;4.83;63.32
31062;BME280;17724;53.546;9.974;2023-02-28T00:48:39;103184.66;;;5.11;63.82
31062;BME280;17724;53.546;9.974;2023-02-28T00:52:39;103185.28;;;5.39;63.52
31062;BME280;17724;53.546;9.974;2023-02-28T00:56:40;103196.34;;;5.37;63.62
31062;BME280;17724;53.546;9.974;2023-02-28T01:00:40;103193.59;;;5.29;63.94
31062;BME280;17724;53.546;9.974;2023-02-28T01:04:41;103187.09;;;5.30;64.09
31062;BME280;17724;53.546;9.974;2023-02-28T01:08:42;103195.50;;;5.37;63.50
31062;BME280;17724;53.546;9.974;2023-02-28T01:12:46;103198.88;;;5.23;65.02
31062;BME280;17724;53.546;9.974;2023-02-28T01:16:46;103202.72;;;5.12;64.83
31062;BME280;17724;53.546;9.974;2023-02-28T01:20:47;103200.16;;;5.10;64.23
31062;BME280;17724;53.546;9.974;2023-02-28T01:24:50;103204.59;;;5.11;62.97
31062;BME280;17724;53.546;9.974;2023-02-28T01:28:51;103209.00;;;5.04;63.65
31062;BME280;17724;53.546;9.974;2023-02-28T01:32:52;103201.66;;;5.05;64.92
31062;BME280;17724;53.546;9.974;2023-02-28T01:36:53;103194.91;;;5.17;64.72
31062;BME280;17724;53.546;9.974;2023-02-28T01:40:54;103197.75;;;5.07;64.89
31062;BME280;17724;53.546;9.974;2023-02-28T01:44:55;103196.44;;;5.11;63.92
31062;BME280;17724;53.546;9.974;2023-02-28T01:53:05;103198.28;;;4.77;66.13
31062;BME280;17724;53.546;9.974;2023-02-28T01:57:11;103187.00;;;4.45;68.07
31062;BME280;17724;53.546;9.974;2023-02-28T02:01:14;103187.47;;;4.41;68.80
31062;BME280;17724;53.546;9.974;2023-02-28T02:05:24;103186.94;;;4.37;68.92
31062;BME280;17724;53.546;9.974;2023-02-28T02:09:25;103187.75;;;4.56;70.08
31062;BME280;17724;53.546;9.974;2023-02-28T02:17:48;103184.69;;;4.85;68.40
31062;BME280;17724;53.546;9.974;2023-02-28T02:22:18;103182.75;;;4.77;69.93
31062;BME280;17724;53.546;9.974;2023-02-28T02:26:59;103187.50;;;4.67;68.35
31062;BME280;17724;53.546;9.974;2023-02-28T02:44:07;103180.56;;;4.55;69.04
31062;BME280;17724;53.546;9.974;2023-02-28T02:48:13;103182.19;;;4.39;69.79
31062;BME280;17724;53.546;9.974;2023-02-28T02:52:18;103181.34;;;4.21;70.87
31062;BME280;17724;53.546;9.974;2023-02-28T02:56:26;103178.75;;;4.37;72.39
31062;BME280;17724;53.546;9.974;2023-02-28T03:00:49;103179.72;;;4.28;71.67
31062;BME280;17724;53.546;9.974;2023-02-28T03:04:55;103165.38;;;4.00;73.80
31062;BME280;17724;53.546;9.974;2023-02-28T03:09:02;103170.88;;;4.08;75.19
31062;BME280;17724;53.546;9.974;2023-02-28T03:17:29;103181.16;;;3.97;77.43
31062;BME280;17724;53.546;9.974;2023-02-28T03:26:20;103187.69;;;3.86;77.19
31062;BME280;17724;53.546;9.974;2023-02-28T03:30:26;103179.50;;;3.86;76.94
31062;BME280;17724;53.546;9.974;2023-02-28T03:34:38;103178.19;;;3.72;78.87
31062;BME280;17724;53.546;9.974;2023-02-28T03:42:46;103184.09;;;3.85;78.33
31062;BME280;17724;53.546;9.974;2023-02-28T03:47:00;103195.31;;;3.64;77.52
31062;BME280;17724;53.546;9.974;2023-02-28T03:51:05;103186.03;;;3.57;79.25
31062;BME280;17724;53.546;9.974;2023-02-28T03:55:10;103183.69;;;3.44;80.14
31062;BME280;17724;53.546;9.974;2023-02-28T03:59:20;103188.75;;;3.57;79.89
31062;BME280;17724;53.546;9.974;2023-02-28T04:03:23;103190.47;;;3.58;80.06
31062;BME280;17724;53.546;9.974;2023-02-28T04:07:24;103199.63;;;3.57;80.36
31062;BME280;17724;53.546;9.974;2023-02-28T04:11:45;103195.28;;;3.19;82.11
31062;BME280;17724;53.546;9.974;2023-02-28T04:15:46;103198.44;;;3.14;82.47
31062;BME280;17724;53.546;9.974;2023-02-28T04:19:46;103189.72;;;3.11;83.15
31062;BME280;17724;53.546;9.974;2023-02-28T04:23:47;103197.19;;;3.09;83.02
31062;BME280;17724;53.546;9.974;2023-02-28T04:27:47;103203.09;;;3.04;83.51
31062;BME280;17724;53.546;9.974;2023-02-28T04:31:48;103190.81;;;2.90;85.30
31062;BME280;17724;53.546;9.974;2023-02-28T04:35:58;103197.31;;;3.17;85.51
31062;BME280;17724;53.546;9.974;2023-02-28T04:39:58;103192.16;;;3.14;85.50
31062;BME280;17724;53.546;9.974;2023-02-28T04:43:58;103193.06;;;3.05;87.19
31062;BME280;17724;53.546;9.974;2023-02-28T04:47:59;103188.75;;;3.12;87.06
31062;BME280;17724;53.546;9.974;2023-02-28T04:52:00;103192.22;;;3.04;88.45
31062;BME280;17724;53.546;9.974;2023-02-28T04:56:00;103191.75;;;3.09;88.02
31062;BME280;17724;53.546;9.974;2023-02-28T05:00:01;103193.97;;;3.23;87.33
31062;BME280;17724;53.546;9.974;2023-02-28T05:04:05;103199.19;;;3.34;86.70
31062;BME280;17724;53.546;9.974;2023-02-28T05:08:06;103200.97;;;3.26;87.58
31062;BME280;17724;53.546;9.974;2023-02-28T05:12:07;103201.59;;;3.19;86.65
31062;BME280;17724;53.546;9.974;2023-02-28T05:16:08;103202.47;;;3.10;87.85
31062;BME280;17724;53.546;9.974;2023-02-28T05:20:10;103211.91;;;3.16;86.21
31062;BME280;17724;53.546;9.974;2023-02-28T05:24:13;103220.59;;;2.92;86.71
31062;BME280;17724;53.546;9.974;2023-02-28T05:28:14;103203.03;;;2.77;87.83
31062;BME280;17724;53.546;9.974;2023-02-28T05:32:14;103211.03;;;2.88;87.55
31062;BME280;17724;53.546;9.974;2023-02-28T05:36:15;103212.00;;;2.87;87.61
31062;BME280;17724;53.546;9.974;2023-02-28T05:40:16;103210.41;;;2.94;86.74
31062;BME280;17724;53.546;9.974;2023-02-28T05:44:17;103206.28;;;2.90;88.02
31062;BME280;17724;53.546;9.974;2023-02-28T05:48:17;103209.28;;;2.96;88.33
31062;BME280;17724;53.546;9.974;2023-02-28T05:52:18;103213.59;;;2.89;88.84
31062;BME280;17724;53.546;9.974;2023-02-28T05:56:18;103213.75;;;2.88;88.13
31062;BME280;17724;53.546;9.974;2023-02-28T06:00:19;103216.63;;;2.77;89.69
31062;BME280;17724;53.546;9.974;2023-02-28T06:04:20;103223.16;;;2.93;89.14
31062;BME280;17724;53.546;9.974;2023-02-28T06:08:21;103224.72;;;2.96;89.73
31062;BME280;17724;53.546;9.974;2023-02-28T06:12:22;103225.91;;;2.84;89.69
31062;BME280;17724;53.546;9.974;2023-02-28T06:16:23;103230.19;;;2.86;90.55
31062;BME280;17724;53.546;9.974;2023-02-28T06:20:25;103227.22;;;2.80;91.39
31062;BME280;17724;53.546;9.974;2023-02-28T06:24:29;103225.13;;;2.64;91.88
31062;BME280;17724;53.546;9.974;2023-02-28T06:28:30;103234.47;;;2.79;91.77
31062;BME280;17724;53.546;9.974;2023-02-28T06:32:31;103233.97;;;2.66;90.75
31062;BME280;17724;53.546;9.974;2023-02-28T06:36:31;103245.91;;;2.83;90.02
31062;BME280;17724;53.546;9.974;2023-02-28T06:40:32;103249.69;;;2.72;87.50
31062;BME280;17724;53.546;9.974;2023-02-28T06:44:35;103242.09;;;2.66;88.94
31062;BME280;17724;53.546;9.974;2023-02-28T06:48:35;103253.72;;;2.68;90.48
31062;BME280;17724;53.546;9.974;2023-02-28T06:52:36;103247.25;;;2.69;89.58
31062;BME280;17724;53.546;9.974;2023-02-28T06:56:37;103248.34;;;2.86;87.66
31062;BME280;17724;53.546;9.974;2023-02-28T07:00:38;103259.75;;;2.52;89.03
31062;BME280;17724;53.546;9.974;2023-02-28T07:04:38;103252.84;;;2.58;89.97
31062;BME280;17724;53.546;9.974;2023-02-28T07:08:40;103257.03;;;2.52;89.96
31062;BME280;17724;53.546;9.974;2023-02-28T07:12:41;103259.44;;;2.45;90.10
31062;BME280;17724;53.546;9.974;2023-02-28T07:16:41;103257.59;;;2.56;90.35
31062;BME280;17724;53.546;9.974;2023-02-28T07:20:42;103267.53;;;2.84;89.80
31062;BME280;17724;53.546;9.974;2023-02-28T07:24:42;103265.34;;;2.97;89.84
31062;BME280;17724;53.546;9.974;2023-02-28T07:28:45;103264.38;;;2.79;89.97
31062;BME280;17724;53.546;9.974;2023-02-28T07:32:46;103263.13;;;2.83;90.38
31062;BME280;17724;53.546;9.974;2023-02-28T07:36:47;103252.97;;;2.76;91.31
31062;BME280;17724;53.546;9.974;2023-02-28T07:40:47;103255.81;;;2.74;91.60
31062;BME280;17724;53.546;9.974;2023-02-28T07:44:48;103259.78;;;2.89;91.56
31062;BME280;17724;53.546;9.974;2023-02-28T07:48:48;103262.75;;;3.06;90.55
31062;BME280;17724;53.546;9.974;2023-02-28T07:52:49;103267.63;;;3.02;89.00
31062;BME280;17724;53.546;9.974;2023-02-28T07:56:49;103268.59;;;3.11;89.13
31062;BME280;17724;53.546;9.974;2023-02-28T08:00:50;103278.03;;;3.07;88.48
31062;BME280;17724;53.546;9.974;2023-02-28T08:04:51;103274.75;;;3.13;89.18
31062;BME280;17724;53.546;9.974;2023-02-28T08:08:52;103267.28;;;3.15;88.49
31062;BME280;17724;53.546;9.974;2023-02-28T08:12:53;103273.75;;;3.41;88.40
31062;BME280;17724;53.546;9.974;2023-02-28T08:16:53;103281.75;;;3.43;87.54
31062;BME280;17724;53.546;9.974;2023-02-28T08:20:54;103280.56;;;3.28;87.55
31062;BME280;17724;53.546;9.974;2023-02-28T08:24:55;103285.59;;;3.50;86.57
31062;BME280;17724;53.546;9.974;2023-02-28T08:28:55;103281.75;;;3.70;86.29
31062;BME280;17724;53.546;9.974;2023-02-28T08:32:56;103291.75;;;3.80;83.37
31062;BME280;17724;53.546;9.974;2023-02-28T08:36:57;103288.53;;;3.66;82.66
31062;BME280;17724;53.546;9.974;2023-02-28T08:40:59;103290.78;;;4.16;83.09
31062;BME280;17724;53.546;9.974;2023-02-28T08:45:00;103292.84;;;4.76;80.65
31062;BME280;17724;53.546;9.974;2023-02-28T08:49:00;103290.88;;;5.12;78.60
31062;BME280;17724;53.546;9.974;2023-02-28T08:53:02;103303.25;;;5.59;76.46
31062;BME280;17724;53.546;9.974;2023-02-28T08:57:03;103306.59;;;5.87;72.23
31062;BME280;17724;53.546;9.974;2023-02-28T09:01:08;103311.53;;;6.66;68.93
31062;BME280;17724;53.546;9.974;2023-02-28T09:05:09;103310.50;;;6.76;66.40
31062;BME280;17724;53.546;9.974;2023-02-28T09:09:10;103315.00;;;7.32;64.75
31062;BME280;17724;53.546;9.974;2023-02-28T09:13:10;103317.84;;;6.75;63.60
31062;BME280;17724;53.546;9.974;2023-02-28T09:17:11;103313.41;;;6.82;63.55
31062;BME280;17724;53.546;9.974;2023-02-28T09:21:14;103315.13;;;6.59;64.13
31062;BME280;17724;53.546;9.974;2023-02-28T09:25:15;103318.50;;;6.45;63.01
31062;BME280;17724;53.546;9.974;2023-02-28T09:29:15;103319.22;;;6.47;63.53
31062;BME280;17724;53.546;9.974;2023-02-28T09:33:18;103320.22;;;6.54;62.87
31062;BME280;17724;53.546;9.974;2023-02-28T09:37:21;103313.22;;;6.43;60.35
31062;BME280;17724;53.546;9.974;2023-02-28T09:41:25;103320.50;;;6.18;60.99
31062;BME280;17724;53.546;9.974;2023-02-28T09:45:29;103327.03;;;6.41;60.27
31062;BME280;17724;53.546;9.974;2023-02-28T09:49:44;103334.88;;;6.28;58.87
31062;BME280;17724;53.546;9.974;2023-02-28T09:53:46;103335.75;;;6.37;56.93
31062;BME280;17724;53.546;9.974;2023-02-28T09:57:47;103336.56;;;6.21;55.47
31062;BME280;17724;53.546;9.974;2023-02-28T10:06:22;103339.69;;;6.34;54.33
31062;BME280;17724;53.546;9.974;2023-02-28T10:10:31;103341.91;;;6.31;53.61
31062;BME280;17724;53.546;9.974;2023-02-28T10:14:34;103335.75;;;6.37;52.91
31062;BME280;17724;53.546;9.974;2023-02-28T10:19:03;103338.19;;;6.56;52.08
31062;BME280;17724;53.546;9.974;2023-02-28T10:27:19;103337.84;;;6.68;52.17
31062;BME280;17724;53.546;9.974;2023-02-28T10:31:20;103331.84;;;6.56;51.88
31062;BME280;17724;53.546;9.974;2023-02-28T10:35:22;103331.16;;;6.62;52.15
31062;BME280;17724;53.546;9.974;2023-02-28T10:39:42;103330.50;;;6.60;51.88
31062;BME280;17724;53.546;9.974;2023-02-28T10:43:44;103331.16;;;6.54;51.68
31062;BME280;17724;53.546;9.974;2023-02-28T10:51:59;103325.88;;;6.52;51.38
31062;BME280;17724;53.546;9.974;2023-02-28T11:00:17;103329.44;;;6.61;52.14
31062;BME280;17724;53.546;9.974;2023-02-28T11:08:22;103328.78;;;6.67;51.02
31062;BME280;17724;53.546;9.974;2023-02-28T11:12:26;103326.03;;;6.83;51.01
31062;BME280;17724;53.546;9.974;2023-02-28T11:16:36;103324.16;;;6.92;51.65
31062;BME280;17724;53.546;9.974;2023-02-28T11:20:37;103336.16;;;6.66;49.86
31062;BME280;17724;53.546;9.974;2023-02-28T11:24:45;103327.56;;;6.86;49.83
31062;BME280;17724;53.546;9.974;2023-02-28T11:28:47;103327.41;;;6.87;49.40
31062;BME280;17724;53.546;9.974;2023-02-28T11:32:49;103322.59;;;6.89;48.87
31062;BME280;17724;53.546;9.974;2023-02-28T11:36:49;103322.97;;;6.95;47.52
31062;BME280;17724;53.546;9.974;2023-02-28T12:19:47;103273.78;;;7.26;45.43
31062;BME280;17724;53.546;9.974;2023-02-28T12:27:51;103263.06;;;7.08;45.32
31062;BME280;17724;53.546;9.974;2023-02-28T12:31:58;103246.44;;;7.18;45.29
31062;BME280;17724;53.546;9.974;2023-02-28T12:36:05;103240.41;;;7.38;45.57
31062;BME280;17724;53.546;9.974;2023-02-28T12:40:11;103241.06;;;7.40;45.45
31062;BME280;17724;53.546;9.974;2023-02-28T12:44:30;103234.38;;;7.43;45.57
31062;BME280;17724;53.546;9.974;2023-02-28T12:48:42;103228.59;;;7.30;45.61
31062;BME280;17724;53.546;9.974;2023-02-28T12:52:55;103214.13;;;7.13;45.84
31062;BME280;17724;53.546;9.974;2023-02-28T12:57:18;103208.31;;;7.16;45.39
31062;BME280;17724;53.546;9.974;2023-02-28T13:01:33;103205.81;;;7.37;45.99
31062;BME280;17724;53.546;9.974;2023-02-28T13:10:11;103199.19;;;7.32;44.96
31062;BME280;17724;53.546;9.974;2023-02-28T13:14:36;103187.72;;;7.28;45.24
31062;BME280;17724;53.546;9.974;2023-02-28T13:22:47;103189.19;;;7.47;44.83
31062;BME280;17724;53.546;9.974;2023-02-28T13:38:58;103172.56;;;7.49;45.25
31062;BME280;17724;53.546;9.974;2023-02-28T13:43:02;103181.13;;;7.46;44.17
31062;BME280;17724;53.546;9.974;2023-02-28T13:55:46;103174.19;;;7.66;44.96
31062;BME280;17724;53.546;9.974;2023-02-28T14:00:13;103173.81;;;7.69;44.07
31062;BME280;17724;53.546;9.974;2023-02-28T14:08:52;103183.59;;;7.95;44.43
31062;BME280;17724;53.546;9.974;2023-02-28T14:17:05;103169.44;;;7.83;44.37
31062;BME280;17724;53.546;9.974;2023-02-28T14:21:16;103179.72;;;8.04;44.71
31062;BME280;17724;53.546;9.974;2023-02-28T14:38:27;103180.50;;;8.12;44.28
31062;BME280;17724;53.546;9.974;2023-02-28T14:42:36;103186.97;;;7.97;44.15
31062;BME280;17724;53.546;9.974;2023-02-28T14:46:45;103178.81;;;8.11;43.92
31062;BME280;17724;53.546;9.974;2023-02-28T14:51:00;103183.16;;;8.06;43.12
31062;BME280;17724;53.546;9.974;2023-02-28T14:55:09;103179.44;;;7.99;43.96
31062;BME280;17724;53.546;9.974;2023-02-28T14:59:30;103186.00;;;8.12;44.51
31062;BME280;17724;53.546;9.974;2023-02-28T15:03:36;103174.38;;;8.10;44.44
31062;BME280;17724;53.546;9.974;2023-02-28T15:07:37;103170.09;;;8.08;43.93
31062;BME280;17724;53.546;9.974;2023-02-28T15:11:38;103162.84;;;8.15;44.99
31062;BME280;17724;53.546;9.974;2023-02-28T15:15:58;103163.56;;;8.32;44.47
31062;BME280;17724;53.546;9.974;2023-02-28T15:20:01;103169.47;;;8.21;43.61
31062;BME280;17724;53.546;9.974;2023-02-28T15:24:50;103160.03;;;8.23;43.61
31062;BME280;17724;53.546;9.974;2023-02-28T15:28:26;103149.91;;;8.47;44.08
31062;BME280;17724;53.546;9.974;2023-02-28T15:32:30;103145.38;;;8.39;43.74
31062;BME280;17724;53.546;9.974;2023-02-28T15:36:33;103141.88;;;8.60;44.57
31062;BME280;17724;53.546;9.974;2023-02-28T15:40:51;103142.44;;;8.41;43.42
31062;BME280;17724;53.546;9.974;2023-02-28T15:44:57;103144.72;;;8.29;42.58
31062;BME280;17724;53.546;9.974;2023-02-28T15:48:59;103132.97;;;8.43;43.97
31062;BME280;17724;53.546;9.974;2023-02-28T15:53:01;103137.22;;;8.08;43.07
31062;BME280;17724;53.546;9.974;2023-02-28T15:57:05;103125.28;;;8.01;43.86
31062;BME280;17724;53.546;9.974;2023-02-28T16:01:29;103126.31;;;8.23;44.44
31062;BME280;17724;53.546;9.974;2023-02-28T16:05:32;103136.88;;;8.26;44.56
31062;BME280;17724;53.546;9.974;2023-02-28T16:09:32;103124.47;;;8.15;44.75
31062;BME280;17724;53.546;9.974;2023-02-28T16:13:33;103118.53;;;8.11;45.26
31062;BME280;17724;53.546;9.974;2023-02-28T16:17:37;103120.28;;;8.04;45.72
31062;BME280;17724;53.546;9.974;2023-02-28T16:21:38;103123.50;;;8.08;45.46
31062;BME280;17724;53.546;9.974;2023-02-28T16:25:40;103135.59;;;7.99;45.68
31062;BME280;17724;53.546;9.974;2023-02-28T16:29:42;103138.34;;;7.99;45.83
31062;BME280;17724;53.546;9.974;2023-02-28T16:33:43;103138.50;;;7.97;45.60
31062;BME280;17724;53.546;9.974;2023-02-28T16:37:45;103140.88;;;8.00;45.37
31062;BME280;17724;53.546;9.974;2023-02-28T16:41:46;103145.78;;;7.90;45.83
31062;BME280;17724;53.546;9.974;2023-02-28T16:45:47;103146.44;;;7.92;46.84
31062;BME280;17724;53.546;9.974;2023-02-28T16:49:48;103132.56;;;7.71;46.37
31062;BME280;17724;53.546;9.974;2023-02-28T16:53:48;103145.09;;;7.88;46.59
31062;BME280;17724;53.546;9.974;2023-02-28T16:57:54;103146.91;;;7.73;47.47
31062;BME280;17724;53.546;9.974;2023-02-28T17:01:56;103151.03;;;7.69;46.52
31062;BME280;17724;53.546;9.974;2023-02-28T17:06:00;103151.47;;;7.57;46.86
31062;BME280;17724;53.546;9.974;2023-02-28T17:10:00;103154.78;;;7.45;47.34
31062;BME280;17724;53.546;9.974;2023-02-28T17:14:08;103158.75;;;7.42;48.11
31062;BME280;17724;53.546;9.974;2023-02-28T17:18:14;103157.56;;;7.36;48.21
31062;BME280;17724;53.546;9.974;2023-02-28T17:22:16;103158.03;;;7.48;49.17
31062;BME280;17724;53.546;9.974;2023-02-28T17:26:18;103164.13;;;7.58;49.96
31062;BME280;17724;53.546;9.974;2023-02-28T17:30:25;103178.97;;;7.33;47.72
31062;BME280;17724;53.546;9.974;2023-02-28T17:34:29;103177.38;;;7.47;49.08
31062;BME280;17724;53.546;9.974;2023-02-28T17:38:29;103175.19;;;7.34;48.82
31062;BME280;17724;53.546;9.974;2023-02-28T17:42:30;103181.50;;;7.03;47.95
31062;BME280;17724;53.546;9.974;2023-02-28T17:46:31;103184.34;;;7.18;49.29
31062;BME280;17724;53.546;9.974;2023-02-28T17:50:32;103174.72;;;6.91;49.49
31062;BME280;17724;53.546;9.974;2023-02-28T17:54:33;103174.19;;;6.96;49.94
31062;BME280;17724;53.546;9.974;2023-02-28T17:58:33;103189.38;;;7.06;50.47
31062;BME280;17724;53.546;9.974;2023-02-28T18:02:34;103181.38;;;6.88;50.38
31062;BME280;17724;53.546;9.974;2023-02-28T18:06:37;103176.72;;;6.97;52.31
31062;BME280;17724;53.546;9.974;2023-02-28T18:10:46;103169.75;;;6.95;50.54
31062;BME280;17724;53.546;9.974;2023-02-28T18:14:46;103182.06;;;6.99;51.71
31062;BME280;17724;53.546;9.974;2023-02-28T18:18:48;103184.81;;;6.90;52.77
31062;BME280;17724;53.546;9.974;2023-02-28T18:22:49;103178.13;;;6.93;53.35
31062;BME280;17724;53.546;9.974;2023-02-28T18:26:49;103182.75;;;6.93;54.47
31062;BME280;17724;53.546;9.974;2023-02-28T18:30:50;103178.00;;;6.86;58.16
31062;BME280;17724;53.546;9.974;2023-02-28T18:34:51;103179.13;;;7.00;55.88
31062;BME280;17724;53.546;9.974;2023-02-28T18:38:51;103178.88;;;6.71;55.73
31062;BME280;17724;53.546;9.974;2023-02-28T18:42:52;103183.63;;;6.77;54.83
31062;BME280;17724;53.546;9.974;2023-02-28T18:46:52;103172.13;;;6.89;56.71
31062;BME280;17724;53.546;9.974;2023-02-28T18:50:54;103181.53;;;6.95;56.51
31062;BME280;17724;53.546;9.974;2023-02-28T18:54:55;103185.00;;;6.81;53.40
31062;BME280;17724;53.546;9.974;2023-02-28T18:58:55;103175.28;;;6.78;54.99
31062;BME280;17724;53.546;9.974;2023-02-28T19:02:56;103172.88;;;6.83;55.30
31062;BME280;17724;53.546;9.974;2023-02-28T19:06:57;103178.50;;;6.82;54.75
31062;BME280;17724;53.546;9.974;2023-02-28T19:10:57;103175.28;;;6.78;54.60
31062;BME280;17724;53.546;9.974;2023-02-28T19:14:58;103186.66;;;6.90;53.30
31062;BME280;17724;53.546;9.974;2023-02-28T19:18:59;103184.31;;;6.87;52.00
31062;BME280;17724;53.546;9.974;2023-02-28T19:23:00;103180.44;;;6.57;51.86
31062;BME280;17724;53.546;9.974;2023-02-28T19:27:01;103181.09;;;6.67;52.46
31062;BME280;17724;53.546;9.974;2023-02-28T19:31:02;103188.63;;;6.57;55.36
31062;BME280;17724;53.546;9.974;2023-02-28T19:35:03;103186.91;;;6.72;56.03
31062;BME280;17724;53.546;9.974;2023-02-28T19:39:04;103181.81;;;6.53;56.48
31062;BME280;17724;53.546;9.974;2023-02-28T19:43:05;103185.91;;;6.57;55.68
31062;BME280;17724;53.546;9.974;2023-02-28T19:47:06;103188.66;;;6.49;56.11
31062;BME280;17724;53.546;9.974;2023-02-28T19:51:12;103185.91;;;6.49;56.36
31062;BME280;17724;53.546;9.974;2023-02-28T19:55:13;103188.47;;;6.50;57.95
31062;BME280;17724;53.546;9.974;2023-02-28T19:59:13;103189.16;;;6.44;60.91
31062;BME280;17724;53.546;9.974;2023-02-28T20:03:14;103192.44;;;6.31;62.95
31062;BME280;17724;53.546;9.974;2023-02-28T20:07:16;103193.28;;;6.32;63.77
31062;BME280;17724;53.546;9.974;2023-02-28T20:11:17;103189.19;;;6.28;61.62
31062;BME280;17724;53.546;9.974;2023-02-28T20:15:17;103198.75;;;6.32;59.70
31062;BME280;17724;53.546;9.974;2023-02-28T20:19:18;103194.81;;;6.26;58.50
31062;BME280;17724;53.546;9.974;2023-02-28T20:23:18;103196.34;;;6.21;57.71
31062;BME280;17724;53.546;9.974;2023-02-28T20:27:19;103190.56;;;6.24;60.84
31062;BME280;17724;53.546;9.974;2023-02-28T20:31:22;103190.88;;;6.04;63.06
31062;BME280;17724;53.546;9.974;2023-02-28T20:35:22;103192.41;;;5.90;62.21
31062;BME280;17724;53.546;9.974;2023-02-28T20:39:23;103188.63;;;5.91;62.22
31062;BME280;17724;53.546;9.974;2023-02-28T20:43:24;103191.00;;;5.86;63.78
31062;BME280;17724;53.546;9.974;2023-02-28T20:47:24;103185.88;;;5.83;67.20
31062;BME280;17724;53.546;9.974;2023-02-28T20:51:25;103185.38;;;5.80;69.94
31062;BME280;17724;53.546;9.974;2023-02-28T20:55:25;103179.91;;;5.80;74.21
31062;BME280;17724;53.546;9.974;2023-02-28T20:59:26;103173.59;;;5.79;71.86
31062;BME280;17724;53.546;9.974;2023-02-28T21:03:26;103173.22;;;5.74;70.30
31062;BME280;17724;53.546;9.974;2023-02-28T21:07:28;103173.59;;;5.71;69.33
31062;BME280;17724;53.546;9.974;2023-02-28T21:11:30;103172.03;;;5.60;71.91
31062;BME280;17724;53.546;9.974;2023-02-28T21:15:31;103181.75;;;5.55;72.38
31062;BME280;17724;53.546;9.974;2023-02-28T21:19:31;103178.81;;;5.48;72.25
31062;BME280;17724;53.546;9.974;2023-02-28T21:23:32;103180.00;;;5.54;71.87
31062;BME280;17724;53.546;9.974;2023-02-28T21:27:33;103176.59;;;5.52;71.83
31062;BME280;17724;53.546;9.974;2023-02-28T21:31:34;103186.50;;;5.53;69.81
31062;BME280;17724;53.546;9.974;2023-02-28T21:35:35;103187.34;;;5.53;67.41
31062;BME280;17724;53.546;9.974;2023-02-28T21:39:36;103194.47;;;5.46;67.26
31062;BME280;17724;53.546;9.974;2023-02-28T21:43:37;103192.63;;;5.47;68.22
31062;BME280;17724;53.546;9.974;2023-02-28T21:47:37;103188.50;;;5.42;69.77
31062;BME280;17724;53.546;9.974;2023-02-28T21:51:38;103193.50;;;5.55;67.73
31062;BME280;17724;53.546;9.974;2023-02-28T21:55:38;103195.56;;;5.61;66.34
31062;BME280;17724;53.546;9.974;2023-02-28T21:59:39;103196.09;;;5.65;65.13
31062;BME280;17724;53.546;9.974;2023-02-28T22:03:40;103197.75;;;5.58;65.75
31062;BME280;17724;53.546;9.974;2023-02-28T22:07:43;103192.66;;;5.55;66.02
31062;BME280;17724;53.546;9.974;2023-02-28T22:11:43;103184.91;;;5.42;67.48
31062;BME280;17724;53.546;9.974;2023-02-28T22:15:44;103181.88;;;5.45;68.31
31062;BME280;17724;53.546;9.974;2023-02-28T22:19:44;103187.84;;;5.49;68.26
31062;BME280;17724;53.546;9.974;2023-02-28T22:23:45;103182.41;;;5.57;68.28
31062;BME280;17724;53.546;9.974;2023-02-28T22:27:46;103185.81;;;5.51;68.57
31062;BME280;17724;53.546;9.974;2023-02-28T22:31:46;103193.81;;;5.44;69.08
31062;BME280;17724;53.546;9.974;2023-02-28T22:35:47;103177.91;;;5.31;70.21
31062;BME280;17724;53.546;9.974;2023-02-28T22:39:48;103185.75;;;5.34;70.96
31062;BME280;17724;53.546;9.974;2023-02-28T22:43:51;103196.19;;;5.39;69.70
31062;BME280;17724;53.546;9.974;2023-02-28T22:47:52;103199.66;;;5.07;72.85
31062;BME280;17724;53.546;9.974;2023-02-28T22:51:53;103194.34;;;5.05;73.13
31062;BME280;17724;53.546;9.974;2023-02-28T22:55:57;103189.72;;;5.06;73.10
31062;BME280;17724;53.546;9.974;2023-02-28T22:59:57;103184.63;;;5.03;73.98
31062;BME280;17724;53.546;9.974;2023-02-28T23:03:59;103192.88;;;4.85;75.44
31062;BME280;17724;53.546;9.974;2023-02-28T23:07:59;103198.25;;;5.03;74.34
31062;BME280;17724;53.546;9.974;2023-02-28T23:12:00;103197.28;;;5.12;73.35
31062;BME280;17724;53.546;9.974;2023-02-28T23:16:04;103204.94;;;5.08;73.18
31062;BME280;17724;53.546;9.974;2023-02-28T23:20:05;103194.66;;;5.02;75.00
31062;BME280;17724;53.546;9.974;2023-02-28T23:24:07;103192.91;;;4.93;75.63
31062;BME280;17724;53.546;9.974;2023-02-28T23:28:11;103190.69;;;4.88;76.21
31062;BME280;17724;53.546;9.974;2023-02-28T23:32:11;103191.16;;;4.84;75.85
31062;BME280;17724;53.546;9.974;2023-02-28T23:36:13;103183.56;;;4.69;75.97
31062;BME280;17724;53.546;9.974;2023-02-28T23:40:15;103178.03;;;4.53;76.72
31062;BME280;17724;53.546;9.974;2023-02-28T23:44:16;103166.72;;;4.74;76.74
31062;BME280;17724;53.546;9.974;2023-02-28T23:48:16;103171.44;;;4.64;77.31
31062;BME280;17724;53.546;9.974;2023-02-28T23:52:17;103161.13;;;4.76;76.52
31062;BME280;17724;53.546;9.974;2023-02-28T23:56:20;103168.25;;;4.68;76.61
